createdAt,value
2023-02-11T00:00:59.211Z,52.20
2023-02-11T00:03:46.828Z,53.40
2023-02-11T00:06:35.599Z,51.77
2023-02-11T00:09:23.018Z,54.67
2023-02-11T00:12:10.770Z,57.45
2023-02-11T00:14:58.026Z,59.50
2023-02-11T00:17:45.337Z,62.85
2023-02-11T00:20:32.820Z,64.12
2023-02-11T00:23:19.942Z,59.58
2023-02-11T00:26:16.463Z,63.13
2023-02-11T00:29:05.641Z,60.50
2023-02-11T00:31:53.138Z,60.08
2023-02-11T00:34:40.671Z,62.62
2023-02-11T00:37:28.133Z,65.25
2023-02-11T00:40:16.470Z,62.33
2023-02-11T00:43:03.554Z,62.62
2023-02-11T00:45:51.089Z,62.65
2023-02-11T00:48:38.947Z,65.95
2023-02-11T00:51:28.146Z,59.73
2023-02-11T00:54:15.453Z,59.85
2023-02-11T00:57:02.725Z,56.20
2023-02-11T00:59:50.654Z,60.67
2023-02-11T01:02:38.182Z,64.87
2023-02-11T01:05:25.782Z,61.50
2023-02-11T01:08:13.240Z,57.58
2023-02-11T01:11:03.275Z,59.15
2023-02-11T01:13:51.813Z,67.70
2023-02-11T01:16:39.221Z,64.12
2023-02-11T01:19:26.880Z,66.25
2023-02-11T01:22:14.605Z,61.90
2023-02-11T01:25:01.999Z,65.70
2023-02-11T01:27:49.641Z,66.70
2023-02-11T01:30:37.085Z,59.75
2023-02-11T01:33:25.461Z,65.65
2023-02-11T01:36:13.580Z,64.75
2023-02-11T01:39:00.776Z,65.12
2023-02-11T01:41:48.028Z,61.33
2023-02-11T01:44:38.632Z,61.88
2023-02-11T01:47:25.767Z,65.45
2023-02-11T01:50:13.407Z,59.50
2023-02-11T01:53:02.948Z,58.73
2023-02-11T01:56:10.885Z,58.95
2023-02-11T01:59:01.448Z,65.62
2023-02-11T02:01:52.585Z,60.92
2023-02-11T02:04:49.044Z,64.42
2023-02-11T02:07:42.328Z,65.72
2023-02-11T02:10:32.144Z,58.28
2023-02-11T02:13:19.385Z,61.58
2023-02-11T02:16:10.089Z,65.20
2023-02-11T02:19:12.950Z,64.72
2023-02-11T02:22:34.974Z,59.88
2023-02-11T02:25:41.712Z,58.28
2023-02-11T02:29:06.370Z,65.45
2023-02-11T02:32:31.565Z,60.80
2023-02-11T02:35:43.521Z,68.87
2023-02-11T02:38:40.069Z,61.23
2023-02-11T02:41:33.260Z,65.37
2023-02-11T02:44:21.459Z,59.48
2023-02-11T02:47:08.882Z,71.62
2023-02-11T02:49:56.166Z,67.05
2023-02-11T02:52:49.969Z,67.42
2023-02-11T02:55:49.057Z,66.17
2023-02-11T02:59:02.502Z,69.47
2023-02-11T03:02:07.558Z,66.70
2023-02-11T03:04:58.257Z,69.07
2023-02-11T03:08:01.376Z,69.90
2023-02-11T03:10:51.769Z,69.58
2023-02-11T03:13:40.944Z,67.75
2023-02-11T03:16:29.571Z,70.22
2023-02-11T03:19:25.158Z,68.92
2023-02-11T03:22:18.320Z,68.50
2023-02-11T03:25:06.429Z,65.87
2023-02-11T03:27:56.995Z,74.37
2023-02-11T03:30:56.466Z,68.90
2023-02-11T03:33:49.784Z,68.17
2023-02-11T03:36:52.319Z,67.25
2023-02-11T03:39:42.616Z,69.22
2023-02-11T03:42:45.224Z,66.12
2023-02-11T03:45:33.282Z,64.67
2023-02-11T03:48:32.833Z,72.85
2023-02-11T03:51:22.661Z,70.12
2023-02-11T03:54:13.080Z,73.47
2023-02-11T03:57:03.018Z,75.83
2023-02-11T04:00:00.655Z,76.10
2023-02-11T04:02:48.196Z,78.85
2023-02-11T04:05:36.235Z,84.77
2023-02-11T04:08:23.580Z,77.87
2023-02-11T04:11:10.964Z,79.20
2023-02-11T04:13:58.249Z,75.00
2023-02-11T04:16:45.879Z,77.58
2023-02-11T04:19:33.141Z,74.40
2023-02-11T04:22:20.772Z,79.82
2023-02-11T04:25:09.432Z,76.80
2023-02-11T04:27:56.727Z,76.70
2023-02-11T04:30:44.273Z,76.97
2023-02-11T04:33:31.228Z,79.17
2023-02-11T04:36:18.696Z,76.45
2023-02-11T04:39:06.540Z,80.15
2023-02-11T04:41:54.024Z,74.47
2023-02-11T04:44:41.346Z,73.47
2023-02-11T04:47:28.853Z,72.95
2023-02-11T04:50:16.381Z,72.05
2023-02-11T04:53:03.487Z,71.07
2023-02-11T04:55:51.792Z,73.15
2023-02-11T04:58:39.584Z,72.62
2023-02-11T05:01:27.239Z,70.37
2023-02-11T05:04:14.635Z,72.95
2023-02-11T05:07:01.670Z,67.97
2023-02-11T05:09:48.763Z,72.10
2023-02-11T05:12:36.011Z,72.20
2023-02-11T05:15:23.258Z,72.55
2023-02-11T05:18:10.737Z,64.75
2023-02-11T05:20:58.097Z,69.27
2023-02-11T05:23:46.292Z,70.05
2023-02-11T05:26:34.141Z,64.40
2023-02-11T05:29:21.307Z,65.87
2023-02-11T05:32:09.172Z,75.15
2023-02-11T05:34:56.582Z,66.35
2023-02-11T05:37:44.136Z,74.10
2023-02-11T05:40:31.266Z,75.30
2023-02-11T05:43:18.793Z,67.25
2023-02-11T05:46:06.585Z,70.47
2023-02-11T05:48:54.159Z,71.72
2023-02-11T05:51:41.889Z,66.47
2023-02-11T05:54:29.232Z,70.55
2023-02-11T05:57:17.388Z,75.85
2023-02-11T06:00:06.382Z,65.70
2023-02-11T06:02:53.946Z,63.45
2023-02-11T06:05:43.108Z,67.37
2023-02-11T06:08:30.388Z,63.80
2023-02-11T06:11:18.626Z,64.42
2023-02-11T06:14:06.050Z,62.35
2023-02-11T06:16:53.277Z,60.30
2023-02-11T06:19:41.024Z,66.22
2023-02-11T06:22:28.522Z,64.15
2023-02-11T06:25:16.031Z,60.80
2023-02-11T06:28:04.182Z,65.55
2023-02-11T06:30:51.996Z,66.97
2023-02-11T06:33:40.038Z,62.50
2023-02-11T06:36:27.029Z,66.02
2023-02-11T06:39:15.215Z,63.35
2023-02-11T06:42:02.720Z,65.55
2023-02-11T06:44:50.271Z,68.50
2023-02-11T06:47:37.752Z,62.17
2023-02-11T06:50:25.424Z,74.60
2023-02-11T06:53:12.928Z,70.55
2023-02-11T06:56:09.704Z,70.30
2023-02-11T06:58:58.221Z,63.98
2023-02-11T07:01:45.759Z,68.05
2023-02-11T07:04:33.802Z,64.03
2023-02-11T07:07:21.302Z,68.50
2023-02-11T07:10:08.995Z,67.55
2023-02-11T07:12:58.726Z,66.33
2023-02-11T07:15:44.815Z,65.90
2023-02-11T07:18:31.959Z,61.30
2023-02-11T07:21:21.885Z,66.75
2023-02-11T07:24:11.267Z,63.38
2023-02-11T07:26:58.671Z,67.58
2023-02-11T07:29:47.106Z,64.87
2023-02-11T07:32:34.562Z,64.53
2023-02-11T07:35:21.775Z,69.50
2023-02-11T07:38:09.171Z,58.35
2023-02-11T07:40:58.158Z,60.83
2023-02-11T07:43:46.434Z,65.28
2023-02-11T07:46:35.690Z,67.53
2023-02-11T07:49:23.382Z,62.35
2023-02-11T07:52:10.817Z,64.05
2023-02-11T07:54:58.640Z,63.42
2023-02-11T07:57:45.906Z,63.48
2023-02-11T08:00:33.103Z,61.15
2023-02-11T08:03:20.346Z,62.17
2023-02-11T08:06:10.616Z,66.05
2023-02-11T08:08:58.091Z,69.05
2023-02-11T08:11:45.580Z,69.95
2023-02-11T08:14:32.870Z,66.30
2023-02-11T08:17:20.517Z,66.15
2023-02-11T08:20:08.214Z,62.55
2023-02-11T08:22:55.588Z,65.20
2023-02-11T08:25:43.209Z,56.45
2023-02-11T08:28:30.658Z,63.90
2023-02-11T08:31:27.267Z,58.87
2023-02-11T08:34:18.130Z,59.98
2023-02-11T08:37:05.373Z,56.80
2023-02-11T08:39:52.810Z,62.88
2023-02-11T08:42:39.913Z,55.00
2023-02-11T08:45:27.408Z,58.92
2023-02-11T08:48:15.027Z,58.75
2023-02-11T08:51:04.008Z,59.58
2023-02-11T08:53:52.016Z,52.55
2023-02-11T08:56:40.321Z,58.13
2023-02-11T08:59:27.352Z,58.35
2023-02-11T09:02:15.503Z,55.80
2023-02-11T09:05:02.977Z,57.93
2023-02-11T09:07:50.388Z,55.70
2023-02-11T09:10:38.699Z,53.40
2023-02-11T09:13:26.012Z,59.08
2023-02-11T09:16:19.764Z,62.45
2023-02-11T09:19:07.198Z,54.15
2023-02-11T09:21:54.457Z,56.80
2023-02-11T09:24:41.523Z,52.13
2023-02-11T09:27:28.863Z,52.33
2023-02-11T09:30:16.456Z,53.50
2023-02-11T09:33:04.201Z,53.10
2023-02-11T09:35:51.557Z,56.88
2023-02-11T09:38:38.857Z,57.35
2023-02-11T09:41:44.593Z,52.80
2023-02-11T09:44:34.936Z,63.50
2023-02-11T09:47:28.506Z,52.85
2023-02-11T09:50:37.063Z,52.43
2023-02-11T09:53:29.837Z,57.55
2023-02-11T09:56:17.244Z,50.85
2023-02-11T09:59:05.753Z,50.33
2023-02-11T10:02:05.630Z,56.58
2023-02-11T10:05:15.862Z,53.48
2023-02-11T10:08:07.905Z,56.73
2023-02-11T10:11:30.949Z,50.38
2023-02-11T10:14:32.654Z,53.35
2023-02-11T10:17:32.288Z,54.30
2023-02-11T10:20:25.553Z,58.63
2023-02-11T10:23:21.931Z,51.35
2023-02-11T10:26:15.555Z,38.33
2023-02-11T10:29:06.054Z,53.90
2023-02-11T10:31:56.539Z,57.25
2023-02-11T10:34:43.393Z,56.63
2023-02-11T10:37:31.775Z,56.53
2023-02-11T10:40:22.446Z,51.10
2023-02-11T10:43:13.227Z,54.40
2023-02-11T10:46:02.829Z,56.00
2023-02-11T10:48:52.935Z,54.03
2023-02-11T10:51:39.916Z,53.90
2023-02-11T10:54:27.489Z,57.90
2023-02-11T10:57:17.981Z,53.90
2023-02-11T11:00:21.580Z,48.78
2023-02-11T11:03:17.743Z,50.80
2023-02-11T11:06:10.378Z,48.25
2023-02-11T11:08:58.258Z,52.05
2023-02-11T11:11:48.298Z,52.85
2023-02-11T11:14:35.507Z,52.67
2023-02-11T11:17:22.850Z,49.95
2023-02-11T11:20:32.640Z,51.28
2023-02-11T11:23:24.388Z,53.23
2023-02-11T11:26:14.604Z,50.92
2023-02-11T11:29:05.202Z,45.20
2023-02-11T11:32:00.824Z,49.05
2023-02-11T11:35:02.765Z,45.90
2023-02-11T11:38:05.131Z,50.45
2023-02-11T11:41:11.894Z,47.53
2023-02-11T11:44:18.907Z,43.13
2023-02-11T11:47:09.532Z,46.98
2023-02-11T11:50:22.760Z,51.68
2023-02-11T11:53:31.092Z,48.70
2023-02-11T11:56:21.728Z,44.27
2023-02-11T11:59:13.656Z,50.45
2023-02-11T12:02:39.095Z,50.80
2023-02-11T12:05:35.564Z,46.83
2023-02-11T12:08:31.706Z,43.33
2023-02-11T12:11:49.600Z,50.92
2023-02-11T12:14:45.810Z,49.00
2023-02-11T12:17:52.970Z,44.90
2023-02-11T12:20:46.524Z,44.88
2023-02-11T12:23:45.946Z,51.50
2023-02-11T12:26:36.517Z,46.70
2023-02-11T12:29:45.097Z,44.73
2023-02-11T12:32:41.526Z,49.93
2023-02-11T12:35:41.100Z,49.33
2023-02-11T12:38:49.959Z,50.52
2023-02-11T12:42:10.121Z,50.70
2023-02-11T12:45:00.791Z,44.50
2023-02-11T12:48:02.728Z,48.48
2023-02-11T12:51:16.147Z,50.52
2023-02-11T12:54:12.497Z,48.87
2023-02-11T12:57:03.306Z,50.73
2023-02-11T13:00:06.017Z,41.98
2023-02-11T13:03:08.364Z,43.40
2023-02-11T13:06:04.735Z,44.63
2023-02-11T13:08:55.799Z,46.77
2023-02-11T13:11:47.669Z,39.98
2023-02-11T13:14:38.240Z,40.75
2023-02-11T13:17:37.631Z,40.80
2023-02-11T13:20:45.533Z,39.67
2023-02-11T13:23:47.506Z,34.85
2023-02-11T13:26:54.193Z,40.30
2023-02-11T13:30:06.466Z,36.00
2023-02-11T13:32:56.729Z,36.20
2023-02-11T13:35:59.311Z,44.70
2023-02-11T13:39:01.665Z,38.60
2023-02-11T13:41:52.733Z,38.90
2023-02-11T13:44:39.744Z,39.38
2023-02-11T13:47:32.805Z,37.58
2023-02-11T13:50:23.560Z,40.55
2023-02-11T13:53:11.084Z,37.55
2023-02-11T13:56:13.723Z,43.80
2023-02-11T13:59:03.622Z,36.80
2023-02-11T14:02:12.090Z,37.10
2023-02-11T14:05:26.762Z,41.55
2023-02-11T14:08:37.570Z,36.48
2023-02-11T14:11:42.512Z,39.08
2023-02-11T14:14:34.952Z,35.98
2023-02-11T14:17:31.006Z,33.08
2023-02-11T14:20:44.550Z,33.08
2023-02-11T14:23:32.597Z,36.13
2023-02-11T14:26:28.965Z,39.73
2023-02-11T14:29:19.332Z,35.45
2023-02-11T14:32:32.105Z,34.60
2023-02-11T14:35:58.117Z,35.48
2023-02-11T14:39:14.040Z,39.50
2023-02-11T14:42:03.404Z,37.98
2023-02-11T14:44:53.064Z,35.10
2023-02-11T14:47:50.661Z,35.28
2023-02-11T14:50:56.396Z,32.83
2023-02-11T14:53:53.120Z,30.43
2023-02-11T14:56:40.707Z,34.13
2023-02-11T14:59:28.415Z,28.23
2023-02-11T15:02:21.676Z,30.92
2023-02-11T15:05:18.926Z,31.23
2023-02-11T15:08:09.691Z,30.43
2023-02-11T15:10:56.676Z,29.00
2023-02-11T15:13:50.548Z,29.30
2023-02-11T15:16:43.815Z,34.53
2023-02-11T15:19:37.393Z,26.48
2023-02-11T15:22:32.345Z,29.77
2023-02-11T15:25:20.296Z,32.85
2023-02-11T15:28:10.726Z,28.40
2023-02-11T15:31:06.164Z,25.60
2023-02-11T15:33:54.820Z,22.35
2023-02-11T15:36:42.830Z,26.30
2023-02-11T15:39:44.059Z,25.77
2023-02-11T15:42:43.862Z,25.77
2023-02-11T15:45:28.207Z,29.35
2023-02-11T15:48:24.360Z,24.92
2023-02-11T15:51:33.128Z,26.70
2023-02-11T15:54:23.832Z,22.58
2023-02-11T15:57:11.834Z,24.25
2023-02-11T16:00:01.276Z,27.62
2023-02-11T16:02:50.896Z,22.50
2023-02-11T16:05:40.756Z,25.62
2023-02-11T16:08:31.645Z,25.17
2023-02-11T16:11:38.397Z,22.30
2023-02-11T16:14:34.604Z,30.00
2023-02-11T16:17:28.246Z,24.32
2023-02-11T16:20:22.184Z,25.12
2023-02-11T16:23:11.122Z,26.93
2023-02-11T16:26:08.485Z,25.60
2023-02-11T16:29:07.739Z,30.30
2023-02-11T16:31:57.226Z,27.40
2023-02-11T16:34:44.843Z,27.98
2023-02-11T16:37:32.430Z,24.87
2023-02-11T16:40:19.814Z,24.57
2023-02-11T16:43:06.936Z,26.52
2023-02-11T16:45:54.585Z,24.12
2023-02-11T16:48:41.997Z,25.48
2023-02-11T16:51:29.114Z,28.02
2023-02-11T16:54:19.090Z,29.60
2023-02-11T16:57:21.108Z,30.12
2023-02-11T17:00:09.357Z,30.08
2023-02-11T17:02:56.963Z,28.35
2023-02-11T17:05:55.003Z,43.38
2023-02-11T17:08:35.706Z,45.88
2023-02-11T17:11:23.123Z,29.63
2023-02-11T17:14:10.483Z,28.95
2023-02-11T17:16:58.239Z,32.78
2023-02-11T17:19:47.330Z,33.38
2023-02-11T17:22:34.732Z,29.25
2023-02-11T17:25:23.371Z,34.43
2023-02-11T17:28:12.117Z,33.85
2023-02-11T17:31:00.340Z,27.75
2023-02-11T17:33:48.327Z,27.93
2023-02-11T17:36:35.587Z,33.55
2023-02-11T17:39:23.837Z,35.52
2023-02-11T17:42:11.818Z,33.23
2023-02-11T17:44:58.950Z,31.60
2023-02-11T17:47:48.052Z,24.10
2023-02-11T17:50:37.135Z,29.12
2023-02-11T17:53:24.597Z,29.10
2023-02-11T17:56:12.088Z,28.20
2023-02-11T17:58:59.700Z,22.35
2023-02-11T18:01:47.045Z,24.47
2023-02-11T18:04:34.805Z,67.67
2023-02-11T18:07:21.986Z,37.60
2023-02-11T18:10:10.313Z,26.77
2023-02-11T18:12:59.318Z,28.47
2023-02-11T18:15:46.623Z,28.55
2023-02-11T18:18:36.863Z,30.50
2023-02-11T18:21:25.034Z,26.95
2023-02-11T18:24:12.666Z,31.82
2023-02-11T18:26:59.912Z,29.55
2023-02-11T18:29:47.273Z,27.62
2023-02-11T18:32:34.583Z,33.88
2023-02-11T18:35:22.312Z,27.93
2023-02-11T18:38:10.476Z,33.02
2023-02-11T18:40:58.774Z,31.10
2023-02-11T18:43:46.571Z,33.23
2023-02-11T18:46:34.293Z,33.55
2023-02-11T18:49:22.041Z,37.17
2023-02-11T18:52:09.516Z,32.55
2023-02-11T18:54:56.786Z,34.27
2023-02-11T18:57:44.124Z,34.33
2023-02-11T19:00:31.697Z,32.42
2023-02-11T19:03:18.932Z,34.27
2023-02-11T19:06:07.073Z,34.48
2023-02-11T19:08:59.008Z,34.88
2023-02-11T19:11:46.682Z,30.77
2023-02-11T19:14:34.804Z,39.03
2023-02-11T19:17:22.068Z,39.85
2023-02-11T19:20:10.050Z,34.92
2023-02-11T19:22:58.134Z,36.65
2023-02-11T19:25:49.147Z,37.65
2023-02-11T19:28:37.337Z,41.55
2023-02-11T19:31:25.239Z,38.73
2023-02-11T19:34:14.216Z,55.15
2023-02-11T19:37:01.725Z,45.43
2023-02-11T19:39:50.263Z,45.10
2023-02-11T19:42:37.696Z,44.30
2023-02-11T19:45:26.934Z,43.00
2023-02-11T19:48:14.165Z,45.20
2023-02-11T19:51:13.324Z,42.75
2023-02-11T19:54:01.591Z,49.80
2023-02-11T19:56:49.175Z,44.33
2023-02-11T19:59:36.647Z,47.10
2023-02-11T20:02:24.959Z,49.45
2023-02-11T20:05:12.264Z,45.65
2023-02-11T20:08:00.300Z,45.78
2023-02-11T20:10:47.594Z,48.42
2023-02-11T20:13:38.359Z,45.95
2023-02-11T20:16:44.637Z,50.60
2023-02-11T20:19:21.862Z,44.48
2023-02-11T20:22:09.244Z,56.85
2023-02-11T20:24:56.987Z,54.85
2023-02-11T20:27:44.222Z,53.05
2023-02-11T20:30:31.873Z,53.63
2023-02-11T20:33:19.581Z,46.33
2023-02-11T20:36:09.852Z,46.30
2023-02-11T20:38:57.268Z,49.10
2023-02-11T20:41:45.912Z,50.75
2023-02-11T20:44:33.351Z,50.95
2023-02-11T20:47:21.964Z,53.40
2023-02-11T20:50:09.920Z,47.33
2023-02-11T20:52:57.962Z,55.60
2023-02-11T20:55:45.228Z,60.38
2023-02-11T20:58:32.919Z,63.17
2023-02-11T21:01:26.145Z,60.48
2023-02-11T21:04:16.626Z,59.35
2023-02-11T21:07:04.043Z,56.40
2023-02-11T21:09:51.707Z,56.85
2023-02-11T21:12:39.329Z,60.52
2023-02-11T21:15:27.026Z,55.25
2023-02-11T21:18:14.307Z,57.35
2023-02-11T21:21:02.144Z,60.30
2023-02-11T21:23:49.620Z,57.00
2023-02-11T21:26:37.201Z,51.45
2023-02-11T21:29:24.619Z,55.75
2023-02-11T21:32:12.458Z,58.52
2023-02-11T21:35:02.266Z,61.95
2023-02-11T21:37:49.223Z,53.00
2023-02-11T21:40:36.733Z,58.55
2023-02-11T21:43:25.895Z,62.03
2023-02-11T21:46:15.810Z,56.60
2023-02-11T21:49:03.220Z,60.92
2023-02-11T21:51:50.640Z,58.08
2023-02-11T21:54:38.231Z,57.65
2023-02-11T21:57:25.589Z,51.63
2023-02-11T22:00:13.931Z,42.23
2023-02-11T22:03:01.430Z,46.18
2023-02-11T22:05:48.661Z,45.63
2023-02-11T22:08:36.686Z,50.10
2023-02-11T22:11:24.805Z,41.55
2023-02-11T22:14:13.370Z,40.73
2023-02-11T22:17:00.616Z,40.80
2023-02-11T22:19:48.414Z,52.53
2023-02-11T22:22:35.662Z,46.88
2023-02-11T22:25:23.129Z,43.68
2023-02-11T22:28:10.807Z,51.25
2023-02-11T22:30:59.834Z,44.13
2023-02-11T22:33:47.897Z,41.10
2023-02-11T22:36:41.298Z,44.60
2023-02-11T22:39:28.935Z,43.95
2023-02-11T22:42:16.463Z,43.60
2023-02-11T22:45:04.170Z,43.33
2023-02-11T22:47:51.565Z,45.63
2023-02-11T22:50:47.890Z,47.30
2023-02-11T22:53:35.405Z,40.03
2023-02-11T22:56:23.188Z,51.18
2023-02-11T22:59:13.706Z,54.35
2023-02-11T23:02:01.293Z,52.43
2023-02-11T23:04:49.949Z,51.00
2023-02-11T23:07:37.506Z,36.65
2023-02-11T23:10:24.840Z,33.65
2023-02-11T23:13:12.182Z,35.25
2023-02-11T23:15:59.704Z,42.88
2023-02-11T23:18:48.540Z,45.58
2023-02-11T23:21:39.032Z,47.55
2023-02-11T23:24:26.422Z,42.65
2023-02-11T23:27:14.097Z,34.48
2023-02-11T23:30:01.351Z,43.38
2023-02-11T23:32:49.075Z,41.68
2023-02-11T23:35:36.742Z,34.92
2023-02-11T23:38:24.214Z,35.80
2023-02-11T23:41:12.587Z,32.83
2023-02-11T23:43:59.754Z,35.13
2023-02-11T23:46:47.037Z,41.90
2023-02-11T23:49:34.373Z,38.53
2023-02-11T23:52:21.560Z,44.85
2023-02-11T23:55:09.173Z,43.38
2023-02-11T23:57:56.681Z,44.20
